sensor_id;sensor_type;location;lat;lon;timestamp;P1;durP1;ratioP1;P2;durP2;ratioP2
51560;SDS011;37654;51.262;17.058;2023-03-07T00:01:03;53.85;;;27.38;;
51560;SDS011;37654;51.262;17.058;2023-03-07T00:03:29;57.78;;;28.17;;
51560;SDS011;37654;51.262;17.058;2023-03-07T00:06:27;49.85;;;26.92;;
51560;SDS011;37654;51.262;17.058;2023-03-07T00:08:49;49.20;;;26.00;;
51560;SDS011;37654;51.262;17.058;2023-03-07T00:11:14;51.88;;;27.42;;
51560;SDS011;37654;51.262;17.058;2023-03-07T00:13:40;58.15;;;30.35;;
51560;SDS011;37654;51.262;17.058;2023-03-07T00:16:06;50.55;;;26.50;;
51560;SDS011;37654;51.262;17.058;2023-03-07T00:18:32;52.70;;;29.35;;
51560;SDS011;37654;51.262;17.058;2023-03-07T00:21:01;54.33;;;27.42;;
51560;SDS011;37654;51.262;17.058;2023-03-07T00:23:26;51.70;;;28.90;;
51560;SDS011;37654;51.262;17.058;2023-03-07T00:25:59;56.67;;;28.50;;
51560;SDS011;37654;51.262;17.058;2023-03-07T00:28:25;49.60;;;27.23;;
51560;SDS011;37654;51.262;17.058;2023-03-07T00:30:50;57.30;;;29.65;;
51560;SDS011;37654;51.262;17.058;2023-03-07T00:33:15;53.13;;;28.92;;
51560;SDS011;37654;51.262;17.058;2023-03-07T00:35:40;53.80;;;27.40;;
51560;SDS011;37654;51.262;17.058;2023-03-07T00:38:06;54.45;;;29.45;;
51560;SDS011;37654;51.262;17.058;2023-03-07T00:40:31;51.58;;;27.38;;
51560;SDS011;37654;51.262;17.058;2023-03-07T00:42:57;50.53;;;28.25;;
51560;SDS011;37654;51.262;17.058;2023-03-07T00:45:22;59.30;;;32.05;;
51560;SDS011;37654;51.262;17.058;2023-03-07T00:47:47;54.00;;;31.02;;
51560;SDS011;37654;51.262;17.058;2023-03-07T00:50:13;51.28;;;28.17;;
51560;SDS011;37654;51.262;17.058;2023-03-07T00:52:38;54.30;;;30.33;;
51560;SDS011;37654;51.262;17.058;2023-03-07T00:55:03;55.40;;;30.40;;
51560;SDS011;37654;51.262;17.058;2023-03-07T00:57:29;61.97;;;32.95;;
51560;SDS011;37654;51.262;17.058;2023-03-07T00:59:54;56.53;;;33.10;;
51560;SDS011;37654;51.262;17.058;2023-03-07T01:02:19;57.47;;;32.38;;
51560;SDS011;37654;51.262;17.058;2023-03-07T01:04:44;51.90;;;29.45;;
51560;SDS011;37654;51.262;17.058;2023-03-07T01:07:10;57.63;;;32.90;;
51560;SDS011;37654;51.262;17.058;2023-03-07T01:09:35;55.47;;;32.45;;
51560;SDS011;37654;51.262;17.058;2023-03-07T01:12:00;60.42;;;32.63;;
51560;SDS011;37654;51.262;17.058;2023-03-07T01:14:25;56.03;;;33.40;;
51560;SDS011;37654;51.262;17.058;2023-03-07T01:16:51;55.80;;;32.95;;
51560;SDS011;37654;51.262;17.058;2023-03-07T01:19:16;54.00;;;29.83;;
51560;SDS011;37654;51.262;17.058;2023-03-07T01:21:42;59.17;;;32.88;;
51560;SDS011;37654;51.262;17.058;2023-03-07T01:24:09;54.42;;;29.92;;
51560;SDS011;37654;51.262;17.058;2023-03-07T01:26:35;55.17;;;29.88;;
51560;SDS011;37654;51.262;17.058;2023-03-07T01:29:01;54.45;;;28.70;;
51560;SDS011;37654;51.262;17.058;2023-03-07T01:31:27;59.10;;;30.10;;
51560;SDS011;37654;51.262;17.058;2023-03-07T01:33:54;51.08;;;29.15;;
51560;SDS011;37654;51.262;17.058;2023-03-07T01:36:23;51.65;;;28.20;;
51560;SDS011;37654;51.262;17.058;2023-03-07T01:38:56;55.28;;;30.35;;
51560;SDS011;37654;51.262;17.058;2023-03-07T01:41:21;63.25;;;31.58;;
51560;SDS011;37654;51.262;17.058;2023-03-07T01:43:46;62.65;;;32.33;;
51560;SDS011;37654;51.262;17.058;2023-03-07T01:51:17;59.20;;;31.42;;
51560;SDS011;37654;51.262;17.058;2023-03-07T01:53:43;61.35;;;31.77;;
51560;SDS011;37654;51.262;17.058;2023-03-07T01:56:08;61.15;;;32.13;;
51560;SDS011;37654;51.262;17.058;2023-03-07T01:58:35;63.88;;;33.72;;
51560;SDS011;37654;51.262;17.058;2023-03-07T02:01:00;56.70;;;30.55;;
51560;SDS011;37654;51.262;17.058;2023-03-07T02:03:34;59.47;;;32.63;;
51560;SDS011;37654;51.262;17.058;2023-03-07T02:06:01;61.97;;;31.70;;
51560;SDS011;37654;51.262;17.058;2023-03-07T02:08:29;63.58;;;32.80;;
51560;SDS011;37654;51.262;17.058;2023-03-07T02:10:55;73.72;;;36.55;;
51560;SDS011;37654;51.262;17.058;2023-03-07T02:13:21;73.97;;;34.83;;
51560;SDS011;37654;51.262;17.058;2023-03-07T02:15:46;64.75;;;34.25;;
51560;SDS011;37654;51.262;17.058;2023-03-07T02:18:13;71.50;;;36.40;;
51560;SDS011;37654;51.262;17.058;2023-03-07T02:20:47;76.53;;;37.92;;
51560;SDS011;37654;51.262;17.058;2023-03-07T02:23:22;78.13;;;37.40;;
51560;SDS011;37654;51.262;17.058;2023-03-07T02:25:53;83.07;;;36.88;;
51560;SDS011;37654;51.262;17.058;2023-03-07T02:28:20;79.82;;;38.47;;
51560;SDS011;37654;51.262;17.058;2023-03-07T02:30:56;79.72;;;39.30;;
51560;SDS011;37654;51.262;17.058;2023-03-07T02:33:21;83.93;;;39.70;;
51560;SDS011;37654;51.262;17.058;2023-03-07T02:35:51;84.10;;;40.28;;
51560;SDS011;37654;51.262;17.058;2023-03-07T02:38:17;92.80;;;41.38;;
51560;SDS011;37654;51.262;17.058;2023-03-07T02:40:42;78.88;;;37.72;;
51560;SDS011;37654;51.262;17.058;2023-03-07T02:43:07;99.05;;;42.33;;
51560;SDS011;37654;51.262;17.058;2023-03-07T02:45:33;85.25;;;40.67;;
51560;SDS011;37654;51.262;17.058;2023-03-07T02:47:59;106.43;;;43.00;;
51560;SDS011;37654;51.262;17.058;2023-03-07T02:50:24;87.53;;;40.13;;
51560;SDS011;37654;51.262;17.058;2023-03-07T02:52:49;98.43;;;42.85;;
51560;SDS011;37654;51.262;17.058;2023-03-07T02:55:15;90.68;;;43.50;;
51560;SDS011;37654;51.262;17.058;2023-03-07T02:57:40;171.95;;;54.35;;
51560;SDS011;37654;51.262;17.058;2023-03-07T03:00:06;115.72;;;50.30;;
51560;SDS011;37654;51.262;17.058;2023-03-07T03:02:32;130.80;;;52.13;;
51560;SDS011;37654;51.262;17.058;2023-03-07T03:04:57;134.25;;;53.22;;
51560;SDS011;37654;51.262;17.058;2023-03-07T03:07:23;205.05;;;57.30;;
51560;SDS011;37654;51.262;17.058;2023-03-07T03:09:48;304.40;;;62.13;;
51560;SDS011;37654;51.262;17.058;2023-03-07T03:12:13;202.07;;;55.88;;
51560;SDS011;37654;51.262;17.058;2023-03-07T03:14:38;317.90;;;61.10;;
51560;SDS011;37654;51.262;17.058;2023-03-07T03:17:04;375.52;;;65.40;;
51560;SDS011;37654;51.262;17.058;2023-03-07T03:19:29;381.00;;;65.72;;
51560;SDS011;37654;51.262;17.058;2023-03-07T03:21:55;375.55;;;63.08;;
51560;SDS011;37654;51.262;17.058;2023-03-07T03:24:20;410.13;;;61.67;;
51560;SDS011;37654;51.262;17.058;2023-03-07T03:26:46;347.95;;;59.67;;
51560;SDS011;37654;51.262;17.058;2023-03-07T03:29:11;369.88;;;59.22;;
51560;SDS011;37654;51.262;17.058;2023-03-07T03:31:36;402.92;;;61.08;;
51560;SDS011;37654;51.262;17.058;2023-03-07T03:34:01;477.98;;;69.47;;
51560;SDS011;37654;51.262;17.058;2023-03-07T03:36:29;486.50;;;67.22;;
51560;SDS011;37654;51.262;17.058;2023-03-07T03:38:54;417.58;;;66.70;;
51560;SDS011;37654;51.262;17.058;2023-03-07T03:41:20;383.85;;;63.97;;
51560;SDS011;37654;51.262;17.058;2023-03-07T03:43:46;401.38;;;68.53;;
51560;SDS011;37654;51.262;17.058;2023-03-07T03:46:11;510.92;;;74.82;;
51560;SDS011;37654;51.262;17.058;2023-03-07T03:48:37;364.42;;;69.97;;
51560;SDS011;37654;51.262;17.058;2023-03-07T03:51:03;288.63;;;62.22;;
51560;SDS011;37654;51.262;17.058;2023-03-07T03:53:29;295.80;;;63.22;;
51560;SDS011;37654;51.262;17.058;2023-03-07T03:56:02;509.25;;;76.18;;
51560;SDS011;37654;51.262;17.058;2023-03-07T03:58:28;231.82;;;60.28;;
51560;SDS011;37654;51.262;17.058;2023-03-07T04:00:53;445.30;;;73.05;;
51560;SDS011;37654;51.262;17.058;2023-03-07T04:03:18;525.33;;;77.18;;
51560;SDS011;37654;51.262;17.058;2023-03-07T04:05:44;384.45;;;66.90;;
51560;SDS011;37654;51.262;17.058;2023-03-07T04:08:09;338.10;;;62.28;;
51560;SDS011;37654;51.262;17.058;2023-03-07T04:10:34;418.65;;;66.88;;
51560;SDS011;37654;51.262;17.058;2023-03-07T04:12:59;259.27;;;56.38;;
51560;SDS011;37654;51.262;17.058;2023-03-07T04:15:25;272.08;;;55.38;;
51560;SDS011;37654;51.262;17.058;2023-03-07T04:17:50;286.65;;;57.50;;
51560;SDS011;37654;51.262;17.058;2023-03-07T04:20:15;222.32;;;52.88;;
51560;SDS011;37654;51.262;17.058;2023-03-07T04:22:42;345.75;;;60.45;;
51560;SDS011;37654;51.262;17.058;2023-03-07T04:25:07;417.33;;;61.17;;
51560;SDS011;37654;51.262;17.058;2023-03-07T04:27:32;216.10;;;51.15;;
51560;SDS011;37654;51.262;17.058;2023-03-07T04:29:59;302.45;;;54.75;;
51560;SDS011;37654;51.262;17.058;2023-03-07T04:32:24;322.92;;;56.28;;
51560;SDS011;37654;51.262;17.058;2023-03-07T04:34:49;388.40;;;64.38;;
51560;SDS011;37654;51.262;17.058;2023-03-07T04:37:15;276.73;;;57.22;;
51560;SDS011;37654;51.262;17.058;2023-03-07T04:39:40;296.42;;;55.88;;
51560;SDS011;37654;51.262;17.058;2023-03-07T04:42:05;396.25;;;66.68;;
51560;SDS011;37654;51.262;17.058;2023-03-07T04:44:30;338.55;;;62.45;;
51560;SDS011;37654;51.262;17.058;2023-03-07T04:46:56;286.05;;;62.70;;
51560;SDS011;37654;51.262;17.058;2023-03-07T04:49:21;331.05;;;65.10;;
51560;SDS011;37654;51.262;17.058;2023-03-07T04:51:46;226.27;;;56.30;;
51560;SDS011;37654;51.262;17.058;2023-03-07T04:54:11;342.33;;;66.13;;
51560;SDS011;37654;51.262;17.058;2023-03-07T04:56:37;209.23;;;55.58;;
51560;SDS011;37654;51.262;17.058;2023-03-07T04:59:02;246.57;;;59.92;;
51560;SDS011;37654;51.262;17.058;2023-03-07T05:01:27;276.77;;;65.50;;
51560;SDS011;37654;51.262;17.058;2023-03-07T05:03:53;254.00;;;63.42;;
51560;SDS011;37654;51.262;17.058;2023-03-07T05:06:18;317.48;;;68.28;;
51560;SDS011;37654;51.262;17.058;2023-03-07T05:08:43;230.82;;;63.47;;
51560;SDS011;37654;51.262;17.058;2023-03-07T05:11:09;381.45;;;75.45;;
51560;SDS011;37654;51.262;17.058;2023-03-07T05:13:34;250.85;;;65.25;;
51560;SDS011;37654;51.262;17.058;2023-03-07T05:15:59;175.93;;;61.95;;
51560;SDS011;37654;51.262;17.058;2023-03-07T05:18:25;253.60;;;66.30;;
51560;SDS011;37654;51.262;17.058;2023-03-07T05:20:51;193.50;;;63.17;;
51560;SDS011;37654;51.262;17.058;2023-03-07T05:23:16;228.23;;;68.75;;
51560;SDS011;37654;51.262;17.058;2023-03-07T05:25:42;185.45;;;65.07;;
51560;SDS011;37654;51.262;17.058;2023-03-07T05:28:07;183.50;;;65.30;;
51560;SDS011;37654;51.262;17.058;2023-03-07T05:30:32;182.70;;;65.53;;
51560;SDS011;37654;51.262;17.058;2023-03-07T05:32:58;183.88;;;69.28;;
51560;SDS011;37654;51.262;17.058;2023-03-07T05:35:23;160.20;;;63.25;;
51560;SDS011;37654;51.262;17.058;2023-03-07T05:37:49;177.05;;;64.70;;
51560;SDS011;37654;51.262;17.058;2023-03-07T05:40:15;187.75;;;67.32;;
51560;SDS011;37654;51.262;17.058;2023-03-07T05:42:40;191.55;;;70.35;;
51560;SDS011;37654;51.262;17.058;2023-03-07T05:45:06;176.32;;;67.57;;
51560;SDS011;37654;51.262;17.058;2023-03-07T05:47:32;179.60;;;69.32;;
51560;SDS011;37654;51.262;17.058;2023-03-07T05:49:57;199.00;;;72.80;;
51560;SDS011;37654;51.262;17.058;2023-03-07T05:52:22;184.80;;;69.90;;
51560;SDS011;37654;51.262;17.058;2023-03-07T05:54:48;190.18;;;73.43;;
51560;SDS011;37654;51.262;17.058;2023-03-07T05:57:13;214.38;;;75.18;;
51560;SDS011;37654;51.262;17.058;2023-03-07T05:59:38;182.40;;;69.30;;
51560;SDS011;37654;51.262;17.058;2023-03-07T06:02:03;192.35;;;71.97;;
51560;SDS011;37654;51.262;17.058;2023-03-07T06:04:29;174.05;;;69.72;;
51560;SDS011;37654;51.262;17.058;2023-03-07T06:06:54;181.38;;;70.88;;
51560;SDS011;37654;51.262;17.058;2023-03-07T06:09:19;183.60;;;66.70;;
51560;SDS011;37654;51.262;17.058;2023-03-07T06:11:46;163.32;;;64.25;;
51560;SDS011;37654;51.262;17.058;2023-03-07T06:14:11;165.10;;;64.05;;
51560;SDS011;37654;51.262;17.058;2023-03-07T06:16:36;151.52;;;58.88;;
51560;SDS011;37654;51.262;17.058;2023-03-07T06:19:02;141.13;;;59.03;;
51560;SDS011;37654;51.262;17.058;2023-03-07T06:21:27;137.95;;;55.28;;
51560;SDS011;37654;51.262;17.058;2023-03-07T06:23:52;129.63;;;57.45;;
51560;SDS011;37654;51.262;17.058;2023-03-07T06:26:17;116.75;;;51.92;;
51560;SDS011;37654;51.262;17.058;2023-03-07T06:28:43;109.25;;;47.72;;
51560;SDS011;37654;51.262;17.058;2023-03-07T06:31:09;103.25;;;49.88;;
51560;SDS011;37654;51.262;17.058;2023-03-07T06:33:34;97.70;;;47.13;;
51560;SDS011;37654;51.262;17.058;2023-03-07T06:36:03;86.00;;;42.45;;
51560;SDS011;37654;51.262;17.058;2023-03-07T06:38:28;79.50;;;40.10;;
51560;SDS011;37654;51.262;17.058;2023-03-07T06:40:54;85.53;;;41.30;;
51560;SDS011;37654;51.262;17.058;2023-03-07T06:43:20;75.18;;;37.15;;
51560;SDS011;37654;51.262;17.058;2023-03-07T06:45:45;77.47;;;39.20;;
51560;SDS011;37654;51.262;17.058;2023-03-07T06:48:10;68.65;;;35.88;;
51560;SDS011;37654;51.262;17.058;2023-03-07T06:50:36;60.72;;;33.47;;
51560;SDS011;37654;51.262;17.058;2023-03-07T06:53:02;58.88;;;31.17;;
51560;SDS011;37654;51.262;17.058;2023-03-07T06:55:27;57.90;;;30.58;;
51560;SDS011;37654;51.262;17.058;2023-03-07T06:57:52;50.08;;;29.00;;
51560;SDS011;37654;51.262;17.058;2023-03-07T07:00:18;49.28;;;27.85;;
51560;SDS011;37654;51.262;17.058;2023-03-07T07:02:43;43.15;;;28.33;;
51560;SDS011;37654;51.262;17.058;2023-03-07T07:05:08;37.73;;;26.40;;
51560;SDS011;37654;51.262;17.058;2023-03-07T07:07:33;36.57;;;26.23;;
51560;SDS011;37654;51.262;17.058;2023-03-07T07:09:59;33.67;;;24.40;;
51560;SDS011;37654;51.262;17.058;2023-03-07T07:12:25;36.22;;;25.60;;
51560;SDS011;37654;51.262;17.058;2023-03-07T07:14:50;32.93;;;23.80;;
51560;SDS011;37654;51.262;17.058;2023-03-07T07:17:15;30.80;;;23.50;;
51560;SDS011;37654;51.262;17.058;2023-03-07T07:19:41;32.17;;;22.83;;
51560;SDS011;37654;51.262;17.058;2023-03-07T07:22:06;29.57;;;22.03;;
51560;SDS011;37654;51.262;17.058;2023-03-07T07:24:36;30.48;;;22.35;;
51560;SDS011;37654;51.262;17.058;2023-03-07T07:27:02;29.85;;;22.33;;
51560;SDS011;37654;51.262;17.058;2023-03-07T07:29:27;28.65;;;22.73;;
51560;SDS011;37654;51.262;17.058;2023-03-07T07:31:52;26.73;;;21.10;;
51560;SDS011;37654;51.262;17.058;2023-03-07T07:34:18;27.08;;;20.73;;
51560;SDS011;37654;51.262;17.058;2023-03-07T07:36:44;27.80;;;21.27;;
51560;SDS011;37654;51.262;17.058;2023-03-07T07:39:09;29.90;;;20.53;;
51560;SDS011;37654;51.262;17.058;2023-03-07T07:41:35;24.85;;;20.08;;
51560;SDS011;37654;51.262;17.058;2023-03-07T07:44:00;26.33;;;21.03;;
51560;SDS011;37654;51.262;17.058;2023-03-07T07:46:26;24.33;;;19.83;;
51560;SDS011;37654;51.262;17.058;2023-03-07T07:48:54;28.05;;;21.48;;
51560;SDS011;37654;51.262;17.058;2023-03-07T07:51:20;26.60;;;20.13;;
51560;SDS011;37654;51.262;17.058;2023-03-07T07:53:45;27.55;;;21.63;;
51560;SDS011;37654;51.262;17.058;2023-03-07T07:56:11;26.02;;;19.83;;
51560;SDS011;37654;51.262;17.058;2023-03-07T07:58:36;23.93;;;19.27;;
51560;SDS011;37654;51.262;17.058;2023-03-07T08:01:10;25.87;;;19.97;;
51560;SDS011;37654;51.262;17.058;2023-03-07T08:03:36;25.23;;;19.27;;
51560;SDS011;37654;51.262;17.058;2023-03-07T08:06:01;23.20;;;18.73;;
51560;SDS011;37654;51.262;17.058;2023-03-07T08:08:26;21.50;;;17.80;;
51560;SDS011;37654;51.262;17.058;2023-03-07T08:10:52;20.60;;;17.47;;
51560;SDS011;37654;51.262;17.058;2023-03-07T08:13:17;20.70;;;18.10;;
51560;SDS011;37654;51.262;17.058;2023-03-07T08:15:42;20.67;;;17.30;;
51560;SDS011;37654;51.262;17.058;2023-03-07T08:18:08;21.47;;;17.83;;
51560;SDS011;37654;51.262;17.058;2023-03-07T08:20:35;20.45;;;16.42;;
51560;SDS011;37654;51.262;17.058;2023-03-07T08:23:01;20.60;;;17.17;;
51560;SDS011;37654;51.262;17.058;2023-03-07T08:25:26;18.87;;;16.33;;
51560;SDS011;37654;51.262;17.058;2023-03-07T08:27:52;23.57;;;17.20;;
51560;SDS011;37654;51.262;17.058;2023-03-07T08:30:19;21.52;;;16.23;;
51560;SDS011;37654;51.262;17.058;2023-03-07T08:32:47;20.98;;;15.57;;
51560;SDS011;37654;51.262;17.058;2023-03-07T08:35:12;19.27;;;15.55;;
51560;SDS011;37654;51.262;17.058;2023-03-07T08:37:37;18.80;;;15.17;;
51560;SDS011;37654;51.262;17.058;2023-03-07T08:40:03;17.23;;;14.68;;
51560;SDS011;37654;51.262;17.058;2023-03-07T08:42:29;17.45;;;14.15;;
51560;SDS011;37654;51.262;17.058;2023-03-07T08:44:54;15.93;;;14.03;;
51560;SDS011;37654;51.262;17.058;2023-03-07T08:47:19;17.67;;;14.70;;
51560;SDS011;37654;51.262;17.058;2023-03-07T08:49:45;19.37;;;14.03;;
51560;SDS011;37654;51.262;17.058;2023-03-07T08:52:10;20.80;;;14.67;;
51560;SDS011;37654;51.262;17.058;2023-03-07T08:54:35;16.53;;;13.77;;
51560;SDS011;37654;51.262;17.058;2023-03-07T08:57:01;18.97;;;14.87;;
51560;SDS011;37654;51.262;17.058;2023-03-07T08:59:26;18.53;;;15.37;;
51560;SDS011;37654;51.262;17.058;2023-03-07T09:01:51;19.13;;;14.53;;
51560;SDS011;37654;51.262;17.058;2023-03-07T09:04:16;19.80;;;15.10;;
51560;SDS011;37654;51.262;17.058;2023-03-07T09:06:42;19.53;;;14.70;;
51560;SDS011;37654;51.262;17.058;2023-03-07T09:09:07;18.83;;;14.23;;
51560;SDS011;37654;51.262;17.058;2023-03-07T09:11:33;16.48;;;12.43;;
51560;SDS011;37654;51.262;17.058;2023-03-07T09:13:58;16.30;;;12.93;;
51560;SDS011;37654;51.262;17.058;2023-03-07T09:16:23;14.57;;;11.90;;
51560;SDS011;37654;51.262;17.058;2023-03-07T09:18:49;14.83;;;11.33;;
51560;SDS011;37654;51.262;17.058;2023-03-07T09:21:14;14.35;;;11.20;;
51560;SDS011;37654;51.262;17.058;2023-03-07T09:23:40;18.73;;;13.00;;
51560;SDS011;37654;51.262;17.058;2023-03-07T09:26:06;17.00;;;12.27;;
51560;SDS011;37654;51.262;17.058;2023-03-07T09:28:31;16.33;;;11.80;;
51560;SDS011;37654;51.262;17.058;2023-03-07T09:30:56;19.70;;;12.67;;
51560;SDS011;37654;51.262;17.058;2023-03-07T09:33:22;18.20;;;12.07;;
51560;SDS011;37654;51.262;17.058;2023-03-07T09:35:47;18.93;;;11.80;;
51560;SDS011;37654;51.262;17.058;2023-03-07T09:38:12;21.87;;;13.47;;
51560;SDS011;37654;51.262;17.058;2023-03-07T09:40:38;22.58;;;14.48;;
51560;SDS011;37654;51.262;17.058;2023-03-07T09:43:09;19.33;;;13.05;;
51560;SDS011;37654;51.262;17.058;2023-03-07T09:53:26;23.17;;;13.80;;
51560;SDS011;37654;51.262;17.058;2023-03-07T09:55:57;23.85;;;13.45;;
51560;SDS011;37654;51.262;17.058;2023-03-07T09:58:23;21.38;;;13.18;;
51560;SDS011;37654;51.262;17.058;2023-03-07T10:00:54;21.80;;;12.43;;
51560;SDS011;37654;51.262;17.058;2023-03-07T10:05:49;20.20;;;12.15;;
51560;SDS011;37654;51.262;17.058;2023-03-07T10:08:20;19.30;;;11.88;;
51560;SDS011;37654;51.262;17.058;2023-03-07T10:10:50;18.17;;;10.38;;
51560;SDS011;37654;51.262;17.058;2023-03-07T10:15:52;19.77;;;10.70;;
51560;SDS011;37654;51.262;17.058;2023-03-07T10:20:59;19.83;;;11.63;;
51560;SDS011;37654;51.262;17.058;2023-03-07T10:28:49;18.38;;;11.27;;
51560;SDS011;37654;51.262;17.058;2023-03-07T10:31:24;15.48;;;9.65;;
51560;SDS011;37654;51.262;17.058;2023-03-07T10:33:51;20.40;;;10.23;;
51560;SDS011;37654;51.262;17.058;2023-03-07T10:36:18;20.70;;;10.82;;
51560;SDS011;37654;51.262;17.058;2023-03-07T10:43:37;20.83;;;11.60;;
51560;SDS011;37654;51.262;17.058;2023-03-07T10:48:53;20.17;;;11.48;;
51560;SDS011;37654;51.262;17.058;2023-03-07T10:51:23;16.23;;;10.10;;
51560;SDS011;37654;51.262;17.058;2023-03-07T10:53:51;22.35;;;12.30;;
51560;SDS011;37654;51.262;17.058;2023-03-07T10:56:17;21.55;;;11.85;;
51560;SDS011;37654;51.262;17.058;2023-03-07T11:01:22;25.98;;;13.70;;
51560;SDS011;37654;51.262;17.058;2023-03-07T11:03:50;24.92;;;12.20;;
51560;SDS011;37654;51.262;17.058;2023-03-07T11:08:55;21.30;;;11.60;;
51560;SDS011;37654;51.262;17.058;2023-03-07T11:11:24;21.65;;;9.40;;
51560;SDS011;37654;51.262;17.058;2023-03-07T11:19:27;16.45;;;8.73;;
51560;SDS011;37654;51.262;17.058;2023-03-07T11:21:54;18.98;;;10.20;;
51560;SDS011;37654;51.262;17.058;2023-03-07T11:24:24;16.95;;;10.48;;
51560;SDS011;37654;51.262;17.058;2023-03-07T11:26:54;19.42;;;9.48;;
51560;SDS011;37654;51.262;17.058;2023-03-07T11:29:19;17.20;;;8.70;;
51560;SDS011;37654;51.262;17.058;2023-03-07T11:36:49;15.82;;;10.02;;
51560;SDS011;37654;51.262;17.058;2023-03-07T11:41:56;13.30;;;7.72;;
51560;SDS011;37654;51.262;17.058;2023-03-07T11:55:00;12.40;;;8.35;;
51560;SDS011;37654;51.262;17.058;2023-03-07T12:02:33;14.50;;;7.87;;
51560;SDS011;37654;51.262;17.058;2023-03-07T12:07:45;12.68;;;7.93;;
51560;SDS011;37654;51.262;17.058;2023-03-07T12:25:24;13.85;;;7.40;;
51560;SDS011;37654;51.262;17.058;2023-03-07T12:30:23;12.55;;;6.45;;
51560;SDS011;37654;51.262;17.058;2023-03-07T12:32:50;12.50;;;6.93;;
51560;SDS011;37654;51.262;17.058;2023-03-07T12:43:26;18.10;;;8.97;;
51560;SDS011;37654;51.262;17.058;2023-03-07T12:46:00;19.83;;;9.25;;
51560;SDS011;37654;51.262;17.058;2023-03-07T12:53:33;18.77;;;10.03;;
51560;SDS011;37654;51.262;17.058;2023-03-07T12:56:02;16.52;;;8.32;;
51560;SDS011;37654;51.262;17.058;2023-03-07T13:01:12;14.82;;;8.00;;
51560;SDS011;37654;51.262;17.058;2023-03-07T13:03:44;12.65;;;7.15;;
51560;SDS011;37654;51.262;17.058;2023-03-07T13:06:12;10.43;;;6.18;;
51560;SDS011;37654;51.262;17.058;2023-03-07T13:08:39;10.73;;;6.13;;
51560;SDS011;37654;51.262;17.058;2023-03-07T13:11:15;16.05;;;7.93;;
51560;SDS011;37654;51.262;17.058;2023-03-07T13:16:06;12.60;;;6.68;;
51560;SDS011;37654;51.262;17.058;2023-03-07T13:18:32;14.68;;;7.20;;
51560;SDS011;37654;51.262;17.058;2023-03-07T13:21:31;16.55;;;7.50;;
51560;SDS011;37654;51.262;17.058;2023-03-07T13:23:49;11.23;;;6.90;;
51560;SDS011;37654;51.262;17.058;2023-03-07T13:26:28;10.77;;;7.03;;
51560;SDS011;37654;51.262;17.058;2023-03-07T13:28:53;10.32;;;6.22;;
51560;SDS011;37654;51.262;17.058;2023-03-07T13:33:44;11.80;;;6.30;;
51560;SDS011;37654;51.262;17.058;2023-03-07T13:38:48;13.52;;;5.63;;
51560;SDS011;37654;51.262;17.058;2023-03-07T13:41:15;9.68;;;6.15;;
51560;SDS011;37654;51.262;17.058;2023-03-07T13:44:00;10.85;;;5.55;;
51560;SDS011;37654;51.262;17.058;2023-03-07T13:46:30;9.32;;;5.60;;
51560;SDS011;37654;51.262;17.058;2023-03-07T13:49:09;12.15;;;7.05;;
51560;SDS011;37654;51.262;17.058;2023-03-07T13:51:34;10.15;;;6.68;;
51560;SDS011;37654;51.262;17.058;2023-03-07T13:54:03;11.35;;;6.05;;
51560;SDS011;37654;51.262;17.058;2023-03-07T13:56:29;12.13;;;6.47;;
51560;SDS011;37654;51.262;17.058;2023-03-07T13:59:16;9.52;;;5.43;;
51560;SDS011;37654;51.262;17.058;2023-03-07T14:01:47;9.57;;;5.68;;
51560;SDS011;37654;51.262;17.058;2023-03-07T14:06:46;9.68;;;5.50;;
51560;SDS011;37654;51.262;17.058;2023-03-07T14:09:13;9.43;;;5.45;;
51560;SDS011;37654;51.262;17.058;2023-03-07T14:22:29;18.17;;;6.60;;
51560;SDS011;37654;51.262;17.058;2023-03-07T14:27:28;14.23;;;6.88;;
51560;SDS011;37654;51.262;17.058;2023-03-07T14:29:55;15.23;;;6.68;;
51560;SDS011;37654;51.262;17.058;2023-03-07T14:32:22;14.27;;;6.90;;
51560;SDS011;37654;51.262;17.058;2023-03-07T14:34:48;14.45;;;7.28;;
51560;SDS011;37654;51.262;17.058;2023-03-07T14:37:19;14.13;;;7.40;;
51560;SDS011;37654;51.262;17.058;2023-03-07T14:44:59;11.75;;;6.28;;
51560;SDS011;37654;51.262;17.058;2023-03-07T14:50:12;10.57;;;6.22;;
51560;SDS011;37654;51.262;17.058;2023-03-07T14:52:38;14.52;;;7.32;;
51560;SDS011;37654;51.262;17.058;2023-03-07T14:55:04;13.15;;;6.20;;
51560;SDS011;37654;51.262;17.058;2023-03-07T14:57:35;12.20;;;6.75;;
51560;SDS011;37654;51.262;17.058;2023-03-07T15:00:12;13.93;;;8.13;;
51560;SDS011;37654;51.262;17.058;2023-03-07T15:02:44;14.00;;;6.80;;
51560;SDS011;37654;51.262;17.058;2023-03-07T15:05:13;14.85;;;7.90;;
51560;SDS011;37654;51.262;17.058;2023-03-07T15:07:39;17.25;;;7.82;;
51560;SDS011;37654;51.262;17.058;2023-03-07T15:10:04;14.80;;;8.05;;
51560;SDS011;37654;51.262;17.058;2023-03-07T15:12:29;15.90;;;8.40;;
51560;SDS011;37654;51.262;17.058;2023-03-07T15:14:59;19.23;;;9.32;;
51560;SDS011;37654;51.262;17.058;2023-03-07T15:17:26;16.15;;;8.23;;
51560;SDS011;37654;51.262;17.058;2023-03-07T15:22:33;16.23;;;8.43;;
51560;SDS011;37654;51.262;17.058;2023-03-07T15:25:03;15.38;;;8.07;;
51560;SDS011;37654;51.262;17.058;2023-03-07T15:27:29;16.65;;;9.10;;
51560;SDS011;37654;51.262;17.058;2023-03-07T15:29:55;17.10;;;8.27;;
51560;SDS011;37654;51.262;17.058;2023-03-07T15:32:32;16.95;;;8.50;;
51560;SDS011;37654;51.262;17.058;2023-03-07T15:35:01;17.05;;;8.93;;
51560;SDS011;37654;51.262;17.058;2023-03-07T15:37:28;11.93;;;6.95;;
51560;SDS011;37654;51.262;17.058;2023-03-07T15:42:23;15.20;;;7.53;;
51560;SDS011;37654;51.262;17.058;2023-03-07T15:44:52;14.77;;;7.95;;
51560;SDS011;37654;51.262;17.058;2023-03-07T15:47:18;17.25;;;9.15;;
51560;SDS011;37654;51.262;17.058;2023-03-07T15:49:47;14.13;;;7.68;;
51560;SDS011;37654;51.262;17.058;2023-03-07T15:52:19;17.13;;;9.05;;
51560;SDS011;37654;51.262;17.058;2023-03-07T15:54:47;15.52;;;7.88;;
51560;SDS011;37654;51.262;17.058;2023-03-07T15:57:15;15.77;;;7.20;;
51560;SDS011;37654;51.262;17.058;2023-03-07T15:59:45;13.10;;;7.57;;
51560;SDS011;37654;51.262;17.058;2023-03-07T16:04:50;12.32;;;7.00;;
51560;SDS011;37654;51.262;17.058;2023-03-07T16:07:17;13.30;;;7.65;;
51560;SDS011;37654;51.262;17.058;2023-03-07T16:09:43;15.18;;;7.45;;
51560;SDS011;37654;51.262;17.058;2023-03-07T16:12:11;14.60;;;8.38;;
51560;SDS011;37654;51.262;17.058;2023-03-07T16:14:37;14.20;;;8.05;;
51560;SDS011;37654;51.262;17.058;2023-03-07T16:17:08;14.95;;;8.38;;
51560;SDS011;37654;51.262;17.058;2023-03-07T16:19:37;15.10;;;8.73;;
51560;SDS011;37654;51.262;17.058;2023-03-07T16:22:02;16.50;;;8.85;;
51560;SDS011;37654;51.262;17.058;2023-03-07T16:24:28;18.95;;;10.10;;
51560;SDS011;37654;51.262;17.058;2023-03-07T16:26:53;14.88;;;8.13;;
51560;SDS011;37654;51.262;17.058;2023-03-07T16:29:20;14.48;;;8.40;;